WIHHWIII

Guest
Details From WIHH - Jakarta Halim Perdanakusuma Intl
To WIII - Jakarta Sukarno-hatta Intl
Flight Number -
Tags Generated
Created
Modified
Stats Distance 17 nm / 31 km
Max Altitude 0 ft / 0 m
Waypoints 2
Social Downloads 7
Likes 0
Share VATSIM

Download

Looking for another format? Having issues loading an existing format? Contact us
Advertisement - Login to hide

Notes

Generated

Route

WIHH WIII

ID Type Via Altitude Latitude Longitude Leg Dist Tot Dist Heading (true) Name
O WIHH APT - 0 ft / 0 m -6.27223˚ 106.87877˚ - 0 nm - -
O WIII APT - 0 ft / 0 m -6.12106˚ 106.63876˚ 16 nm 16 nm 302° / 302° -

Altitude Profile

Advertisement - Login to hide

WIHH

Details ICAO WIHH (HLP)
Name Jakarta Halim Perdanakusuma Intl
Region Indonesia
Timezone Asia/Jakarta (UTC+7.0)
Stats Elevation 84 ft / 26 m (AMSL)
Location -6.266608° 106.891117°
Runways 1
Magnetic Variation 0.650° E

METAR

WIHH 140730Z 27005KT 7000 SCT018 30/23 Q1009 NOSIG

Decode

TAF

Not found

Departure Runways

ID Width Length Bearing (true) Bearing (mag) Surface Threshold Offset Overrun Length
06 148 ft / 45 m 9,855 ft / 3,004 m 65.38° 64.73° Asphalt 0 ft / 0 m 0 ft / 0 m
24 148 ft / 45 m 9,855 ft / 3,004 m 245.38° 244.73° Asphalt 650 ft / 198 m 0 ft / 0 m

WIII

Details ICAO WIII (CGK)
Name Jakarta Sukarno-Hatta Intl
Region Indonesia
Timezone Asia/Jakarta (UTC+7.0)
Stats Elevation 34 ft / 10 m (AMSL)
Location -6.125743° 106.656405°
Runways 2
Magnetic Variation 0.630° E

METAR

WIII 140730Z 27008KT 8000 SCT020 30/23 Q1009 NOSIG

Decode

TAF

Not found

Destination Runways

ID Width Length Bearing (true) Bearing (mag) Surface Threshold Offset Overrun Length
07L 197 ft / 60 m 11,823 ft / 3,604 m 68.13° 67.50° Concrete 0 ft / 0 m 200 ft / 61 m
07R 197 ft / 60 m 12,024 ft / 3,665 m 68.12° 67.49° Concrete 0 ft / 0 m 200 ft / 61 m
25L 197 ft / 60 m 12,024 ft / 3,665 m 248.12° 247.49° Concrete 0 ft / 0 m 200 ft / 61 m
25R 197 ft / 60 m 11,823 ft / 3,604 m 248.12° 247.49° Concrete 0 ft / 0 m 200 ft / 61 m

Approach Navaids

Runway Type Ident Frequency Range Bearing (true) Bearing (mag) Slope Elevation
07L Localiser ICHL 111.50 MHz 18 nm / 33 km 68.13° 67.50° - 21 ft / 6 m (AMSL)
07L Glidescope ICHL 111.50 MHz 10 nm / 19 km 68.12° 67.49° 3.00° 29 ft / 9 m (AMSL)
07R Localiser ICHR 110.50 MHz 18 nm / 33 km 68.13° 67.50° - 27 ft / 8 m (AMSL)
07R Glidescope ICHR 110.50 MHz 10 nm / 19 km 68.12° 67.49° 3.00° 34 ft / 10 m (AMSL)
25L Localiser ICGL 111.10 MHz 18 nm / 33 km 248.12° 247.49° - 34 ft / 10 m (AMSL)
25L Glidescope ICGL 111.10 MHz 10 nm / 19 km 248.12° 247.49° 3.00° 27 ft / 8 m (AMSL)
25R Localiser ICGR 110.90 MHz 18 nm / 33 km 248.13° 247.50° - 29 ft / 9 m (AMSL)
25R Glidescope ICGR 110.90 MHz 10 nm / 19 km 248.12° 247.49° 3.00° 21 ft / 6 m (AMSL)

Popular Alternatives